Fantastic — IBDF — position and weather

sailwx.info

Track history (hours):
 
Tides and Currents Weather Stations Pressure Air Temp Water Temp Dewpoint Dewpoint Depression Visibility Wind Speed Wind Dir Waves Ship Positions

Fantastic

Last reported at 2018-May-25 03:10 UTC. Time now 2018-May-25 06:53 UTC.
Position N 41°27' E 002°54'.

Length 188 m; draft 6.6 m.

Type: Passenger vessel. MMSI: 247094000.

Date/timePositionNaut miles runAvg speedWind from/ knotsBaromVisibWave heightAir tempDewpointWater temp
2018-May-25 03:10N 41°27' E 002°54'318.9
2018-May-25 03:00N 41°24' E 002°51'1319.0
2018-May-25 02:20N 41°14' E 002°41'619.1
2018-May-25 02:00N 41°09' E 002°37'2519.5
2018-May-25 00:43N 40°47' E 002°19'519.8
2018-May-25 00:28N 40°43' E 002°15'5419.8
2018-May-24 21:45N 39°59' E 001°36'14119.6
2018-May-24 14:32N 38°02' W 000°06'219.3
2018-May-24 14:26N 38°00' W 000°07'1119.2
2018-May-24 13:52N 37°51' W 000°14'719.7
2018-May-24 13:30N 37°45' W 000°20'24919.0
2018-May-24 00:25N 36°01' W 005°03'921.2
2018-May-24 00:00N 36°00' W 005°13'1121.9
2018-May-23 23:30N 35°57' W 005°26'3 0.3
2018-May-23 13:48N 35°56' W 005°30'516.1
2018-May-23 13:31N 35°60' W 005°26'917.1
2018-May-23 13:01N 36°02' W 005°16'18117.6
2018-May-23 02:44N 36°49' W 001°38'4319.0
2018-May-23 00:27N 37°17' W 000°58'918.3
2018-May-22 23:59N 37°23' W 000°50'918.1
2018-May-22 23:31N 37°29' W 000°42'917.5
2018-May-22 23:00N 37°35' W 000°33'817.2
2018-May-22 22:31N 37°42' W 000°28'917.6
2018-May-22 22:00N 37°50' W 000°22'1018.4
2018-May-22 21:28N 37°58' W 000°15'918.3
2018-May-22 21:00N 38°05' W 000°09'1018.5
2018-May-22 20:29N 38°13' W 000°02'918.7
2018-May-22 20:00N 38°20' E 000°05'918.7
2018-May-22 19:30N 38°28' E 000°11'918.5
2018-May-22 19:00N 38°36' E 000°17'918.5
2018-May-22 18:30N 38°44' E 000°23'918.3
2018-May-22 18:00N 38°52' E 000°29'1118.4
2018-May-22 17:24N 39°02' E 000°35'818.5
2018-May-22 17:00N 39°09' E 000°39'1419.0
2018-May-22 16:16N 39°21' E 000°48'11520.1
2018-May-22 10:32N 41°02' E 001°60'120.3
2018-May-22 10:30N 41°02' E 002°00'1020.0
2018-May-22 10:00N 41°11' E 002°07'917.8
2018-May-22 09:31N 41°19' E 002°10'3 0.5
2018-May-22 04:50N 41°22' E 002°10'1 2.3
2018-May-22 04:30N 41°21' E 002°10'4 7.1
2018-May-22 04:00N 41°17' E 002°11'816.7
2018-May-22 03:30N 41°17' E 002°22'918.5
2018-May-22 03:00N 41°20' E 002°33'10917.2
2018-May-21 20:39N 42°58' E 003°38'319.4
2018-May-21 20:30N 43°01' E 003°39'1819.4
2018-May-21 19:36N 43°18' E 003°43'419.3
2018-May-21 19:25N 43°21' E 003°44'3 7.0
2018-May-21 19:00N 43°24' E 003°42'0 0.3
2018-May-21 18:28N 43°24' E 003°42'0 0.0
2018-May-21 17:52N 43°24' E 003°42'0 0.0
2018-May-21 17:25N 43°24' E 003°42'0 0.0
2018-May-21 16:58N 43°24' E 003°42'0 0.0
2018-May-21 16:19N 43°24' E 003°42'0 0.0
2018-May-21 15:58N 43°24' E 003°42'0 0.0
2018-May-21 15:28N 43°24' E 003°42'0 0.0
2018-May-21 14:58N 43°24' E 003°42'0 0.0
2018-May-21 14:22N 43°24' E 003°42'0 0.0
2018-May-21 13:58N 43°24' E 003°42'0 0.0
2018-May-21 13:28N 43°24' E 003°42'0 0.0
2018-May-21 12:58N 43°24' E 003°42'0 0.0
2018-May-21 12:22N 43°24' E 003°42'0 0.0
2018-May-21 11:58N 43°24' E 003°42'0 0.0
2018-May-21 11:28N 43°24' E 003°42'0 0.0
2018-May-21 10:49N 43°24' E 003°42'0 0.0
2018-May-21 10:28N 43°24' E 003°42'0 0.0
2018-May-21 09:58N 43°24' E 003°42'0 0.0
2018-May-21 09:28N 43°24' E 003°42'0 0.0
2018-May-21 09:00N 43°24' E 003°42'2 4.3
2018-May-21 08:30N 43°24' E 003°45'714.1
2018-May-21 08:00N 43°20' E 003°53'815.4
2018-May-21 07:30N 43°16' E 004°02'815.8
2018-May-21 07:00N 43°12' E 004°12'915.7
2018-May-21 06:26N 43°07' E 004°22'715.5
2018-May-21 06:00N 43°04' E 004°30'815.5
2018-May-21 05:30N 43°01' E 004°40'815.6
2018-May-21 05:00N 42°57' E 004°49'815.9
2018-May-21 04:30N 42°54' E 004°59'916.0
2018-May-21 03:56N 42°51' E 005°11'9714.1
2018-May-20 21:07N 43°11' E 007°20'216.2
2018-May-20 21:00N 43°12' E 007°22'1116.2
2018-May-20 20:20N 43°21' E 007°31'4916.4
2018-May-20 17:22N 43°56' E 008°17'616.4
2018-May-20 17:00N 44°00' E 008°23'816.6
2018-May-20 16:30N 44°06' E 008°32'816.5
2018-May-20 16:00N 44°11' E 008°41'816.3
2018-May-20 15:31N 44°15' E 008°51'917.2
2018-May-20 15:01N 44°22' E 008°57'2 3.9
2018-May-20 14:28N 44°24' E 008°55'0 0.0
2018-May-20 13:58N 44°24' E 008°55'0 0.0
2018-May-20 13:28N 44°24' E 008°55'0 0.0
2018-May-20 12:58N 44°24' E 008°55'0 0.0
2018-May-20 12:28N 44°24' E 008°55'0 0.0
2018-May-20 11:58N 44°24' E 008°55'0 0.0
2018-May-20 11:28N 44°24' E 008°55'0 0.0
2018-May-20 10:58N 44°24' E 008°55'0 0.0
2018-May-20 10:28N 44°24' E 008°55'0 0.0
2018-May-20 09:58N 44°24' E 008°55'0 0.0
2018-May-20 09:28N 44°24' E 008°55'0 0.0
2018-May-20 08:58N 44°24' E 008°55'0 0.0
2018-May-20 08:28N 44°24' E 008°55'0 0.0
2018-May-20 07:58N 44°24' E 008°55'0 0.0
2018-May-20 07:28N 44°24' E 008°55'0 0.0
2018-May-20 06:58N 44°24' E 008°55'0 0.0
2018-May-20 06:28N 44°24' E 008°55'0 0.0
2018-May-20 05:58N 44°24' E 008°55'0 0.0
2018-May-20 05:28N 44°24' E 008°55'0 0.0
2018-May-20 04:58N 44°24' E 008°55'0 0.0
2018-May-20 04:28N 44°24' E 008°55'0 0.0
2018-May-20 03:58N 44°24' E 008°55'0 0.0
2018-May-20 03:28N 44°24' E 008°55'0 0.0
2018-May-20 02:58N 44°24' E 008°55'0 0.0
2018-May-20 02:28N 44°24' E 008°55'0 0.0
2018-May-20 01:58N 44°24' E 008°55'0 0.0
2018-May-20 01:28N 44°24' E 008°55'0 0.0
2018-May-20 00:58N 44°24' E 008°55'0 0.0
2018-May-20 00:28N 44°24' E 008°55'0 0.0
2018-May-19 23:58N 44°24' E 008°55'0 0.0
2018-May-19 23:25N 44°24' E 008°55'0 0.0
2018-May-19 22:58N 44°24' E 008°55'0 0.0
2018-May-19 22:28N 44°24' E 008°55'0 0.0
2018-May-19 21:58N 44°24' E 008°55'0 0.0
2018-May-19 21:28N 44°24' E 008°55'0 0.0
2018-May-19 20:58N 44°24' E 008°55'0 0.0
2018-May-19 20:28N 44°24' E 008°55'0 0.0
2018-May-19 19:58N 44°24' E 008°55'0 0.0
2018-May-19 19:28N 44°24' E 008°55'0 0.0
2018-May-19 18:58N 44°24' E 008°55'0 0.0
2018-May-19 18:28N 44°24' E 008°55'0 0.0
2018-May-19 17:58N 44°24' E 008°55'0 0.0
2018-May-19 17:28N 44°24' E 008°55'0 0.0
2018-May-19 16:58N 44°24' E 008°55'0 0.0
2018-May-19 16:28N 44°24' E 008°55'0 0.0
2018-May-19 15:58N 44°24' E 008°55'0 0.0
2018-May-19 15:28N 44°24' E 008°55'0 0.0
2018-May-19 14:58N 44°24' E 008°55'0 0.0
2018-May-19 14:28N 44°24' E 008°55'0 0.0
2018-May-19 13:58N 44°24' E 008°55'0 0.0
2018-May-19 13:28N 44°24' E 008°55'0 0.0
2018-May-19 12:58N 44°24' E 008°55'0 0.0
2018-May-19 12:28N 44°24' E 008°55'0 0.0
2018-May-19 11:58N 44°24' E 008°55'0 0.0
2018-May-19 11:28N 44°24' E 008°55'0 0.0
2018-May-19 10:58N 44°24' E 008°55'0 0.0
2018-May-19 10:28N 44°24' E 008°55'0 0.0
2018-May-19 09:58N 44°24' E 008°55'0 0.0
2018-May-19 09:22N 44°24' E 008°55'0 0.0
2018-May-19 08:55N 44°24' E 008°55'0 0.0
2018-May-19 08:28N 44°24' E 008°55'0 0.0
2018-May-19 07:58N 44°24' E 008°55'0 0.0
2018-May-19 07:28N 44°24' E 008°55'0 0.0
2018-May-19 06:58N 44°24' E 008°55'0 0.0
2018-May-19 06:28N 44°24' E 008°55'0 0.0
2018-May-19 05:58N 44°24' E 008°55'0 0.0
2018-May-19 05:28N 44°24' E 008°55'0 0.0
2018-May-19 04:58N 44°24' E 008°55'0 0.0
2018-May-19 04:28N 44°24' E 008°55'0 0.0
2018-May-19 03:58N 44°24' E 008°55'0 0.0
2018-May-19 03:28N 44°24' E 008°55'0 0.0
2018-May-19 02:58N 44°24' E 008°55'0 0.0
2018-May-19 02:28N 44°24' E 008°55'0 0.0
2018-May-19 01:58N 44°24' E 008°55'0 0.0
2018-May-19 01:28N 44°24' E 008°55'0 0.0
2018-May-19 00:58N 44°24' E 008°55'0 0.0
2018-May-19 00:28N 44°24' E 008°55'0 0.0
2018-May-18 23:58N 44°24' E 008°55'0 0.0
2018-May-18 23:28N 44°24' E 008°55'0 0.0
2018-May-18 22:58N 44°24' E 008°55'0 0.0
2018-May-18 22:25N 44°24' E 008°55'0 0.0
2018-May-18 21:52N 44°24' E 008°55'0 0.0
2018-May-18 21:28N 44°24' E 008°55'0 0.0
2018-May-18 20:55N 44°24' E 008°55'0 0.0
2018-May-18 20:28N 44°24' E 008°55'0 0.0
2018-May-18 19:55N 44°24' E 008°55'0 0.0
2018-May-18 19:28N 44°24' E 008°55'0 0.0
2018-May-18 18:58N 44°24' E 008°55'0 0.0
2018-May-18 18:28N 44°24' E 008°55'0 0.0
2018-May-18 17:58N 44°24' E 008°55'0 0.0
2018-May-18 17:28N 44°24' E 008°55'0 0.0
2018-May-18 16:55N 44°24' E 008°55'0 0.0
2018-May-18 16:28N 44°24' E 008°55'0 0.0
2018-May-18 15:58N 44°24' E 008°55'0 0.0
2018-May-18 15:28N 44°24' E 008°55'0 0.0
2018-May-18 14:58N 44°24' E 008°55'0 0.0
2018-May-18 14:28N 44°24' E 008°55'0 0.0
2018-May-18 13:58N 44°24' E 008°55'0 0.0
2018-May-18 13:28N 44°24' E 008°55'0 0.0
2018-May-18 12:58N 44°24' E 008°55'0 0.0
2018-May-18 12:28N 44°24' E 008°55'0 0.2
2018-May-18 12:00N 44°24' E 008°55'3 6.2
2018-May-18 11:30N 44°22' E 008°58'5 9.4
2018-May-18 11:01N 44°17' E 008°58'4 7.2
2018-May-18 10:30N 44°13' E 008°59'611.7
2018-May-18 10:00N 44°14' E 009°07'2 4.7
2018-May-18 09:30N 44°13' E 009°10'4 8.8
2018-May-18 09:00N 44°11' E 009°05'3 5.6
2018-May-18 08:31N 44°09' E 009°02'1020.2
2018-May-18 08:01N 44°19' E 008°58'510.1
2018-May-18 07:30N 44°23' E 008°56'1 2.0
2018-May-18 07:01N 44°24' E 008°55'0 0.0
2018-May-18 06:28N 44°24' E 008°55'0 0.0
2018-May-18 05:58N 44°24' E 008°55'0 0.0
2018-May-18 05:28N 44°24' E 008°55'0 0.0
2018-May-18 04:58N 44°24' E 008°55'0 0.0
2018-May-18 04:28N 44°24' E 008°55'0 0.0
2018-May-18 03:58N 44°24' E 008°55'0 0.0
2018-May-18 03:19N 44°24' E 008°55'0 0.0
2018-May-18 02:58N 44°24' E 008°55'0 0.0
2018-May-18 02:28N 44°24' E 008°55'0 0.0
2018-May-18 01:58N 44°24' E 008°55'0 0.0
2018-May-18 01:28N 44°24' E 008°55'0 0.0
2018-May-18 00:58N 44°24' E 008°55'0 0.0
2018-May-18 00:25N 44°24' E 008°55'0 0.0
2018-May-17 23:52N 44°24' E 008°55'0 0.0
2018-May-17 23:25N 44°24' E 008°55'0 0.0
2018-May-17 22:58N 44°24' E 008°55'0 0.0
2018-May-17 22:28N 44°24' E 008°55'0 0.0
2018-May-17 21:55N 44°24' E 008°55'0 0.0
2018-May-17 21:28N 44°24' E 008°55'0 0.0
2018-May-17 20:58N 44°24' E 008°55'0 0.0
2018-May-17 20:28N 44°24' E 008°55'0 0.0
2018-May-17 19:58N 44°24' E 008°55'0 0.0
2018-May-17 19:28N 44°24' E 008°55'0 0.0
2018-May-17 18:58N 44°24' E 008°55'0 0.0
2018-May-17 18:28N 44°24' E 008°55'0 0.0
2018-May-17 17:58N 44°24' E 008°55'0 0.0
2018-May-17 17:19N 44°24' E 008°55'0 0.0
2018-May-17 16:58N 44°24' E 008°55'0 0.0
2018-May-17 16:28N 44°24' E 008°55'0 0.0
2018-May-17 15:58N 44°24' E 008°55'0 0.0
2018-May-17 15:28N 44°24' E 008°55'0 0.0
2018-May-17 14:58N 44°24' E 008°55'0 0.0
2018-May-17 14:28N 44°24' E 008°55'0 0.0
2018-May-17 13:58N 44°24' E 008°55'0 0.0
2018-May-17 13:28N 44°24' E 008°55'0 0.0
2018-May-17 12:58N 44°24' E 008°55'0 0.0
2018-May-17 12:28N 44°24' E 008°55'0 0.0
2018-May-17 11:55N 44°24' E 008°55'0 0.0
2018-May-17 11:28N 44°24' E 008°55'0 0.0
2018-May-17 10:58N 44°24' E 008°55'0 0.0
2018-May-17 10:28N 44°24' E 008°55'0 0.0
2018-May-17 09:58N 44°24' E 008°55'0 0.0
2018-May-17 09:28N 44°24' E 008°55'0 0.0
2018-May-17 08:52N 44°24' E 008°55'0 0.0
2018-May-17 08:25N 44°24' E 008°55'0 0.0
2018-May-17 07:55N 44°24' E 008°55'0 0.0
2018-May-17 07:25N 44°24' E 008°55'0 0.0
2018-May-17 06:58N 44°24' E 008°55'0 0.0
2018-May-17 06:28N 44°24' E 008°55'0 0.0
2018-May-17 05:58N 44°24' E 008°55'0 0.0
2018-May-17 05:25N 44°24' E 008°55'0 0.0
2018-May-17 04:58N 44°24' E 008°55'0 0.0
2018-May-17 04:28N 44°24' E 008°55'0 0.0
2018-May-17 03:58N 44°24' E 008°55'0 0.0
2018-May-17 03:28N 44°24' E 008°55'0 0.0
2018-May-17 02:58N 44°24' E 008°55'0 0.0
2018-May-17 02:28N 44°24' E 008°55'0 0.0
2018-May-17 01:58N 44°24' E 008°55'0 0.0
2018-May-17 01:28N 44°24' E 008°55'0 0.0
2018-May-17 00:58N 44°24' E 008°55'0 0.0
2018-May-17 00:28N 44°24' E 008°55'0 0.0
2018-May-16 23:58N 44°24' E 008°55'0 0.0
2018-May-16 23:19N 44°24' E 008°55'0 0.0
2018-May-16 22:55N 44°24' E 008°55'0 0.0
2018-May-16 22:25N 44°24' E 008°55'0 0.0
2018-May-16 21:55N 44°24' E 008°55'0 0.0
2018-May-16 21:22N 44°24' E 008°55'0 0.0
2018-May-16 20:55N 44°24' E 008°55'0 0.0
2018-May-16 20:25N 44°24' E 008°55'0 0.0
2018-May-16 19:58N 44°24' E 008°55'0 0.0
2018-May-16 19:28N 44°24' E 008°55'0 0.0
2018-May-16 18:55N 44°24' E 008°55'0 0.0
2018-May-16 18:25N 44°24' E 008°55'0 0.0
2018-May-16 17:55N 44°24' E 008°55'0 0.0
2018-May-16 17:25N 44°24' E 008°55'0 0.0
2018-May-16 16:55N 44°24' E 008°55'0 0.0
2018-May-16 16:25N 44°24' E 008°55'0 0.0
2018-May-16 15:58N 44°24' E 008°55'0 0.0
2018-May-16 15:28N 44°24' E 008°55'0 0.0
2018-May-16 14:58N 44°24' E 008°55'0 0.0
2018-May-16 14:28N 44°24' E 008°55'0 0.0
2018-May-16 13:58N 44°24' E 008°55'0 0.0
2018-May-16 13:28N 44°24' E 008°55'0 0.0
2018-May-16 12:55N 44°24' E 008°55'0 0.0
2018-May-16 12:28N 44°24' E 008°55'0 0.0
2018-May-16 11:52N 44°24' E 008°55'0 0.0
2018-May-16 11:25N 44°24' E 008°55'0 0.0
2018-May-16 10:58N 44°24' E 008°55'0 0.0
2018-May-16 10:28N 44°24' E 008°55'0 0.0
2018-May-16 09:58N 44°24' E 008°55'0 0.0
2018-May-16 09:28N 44°24' E 008°55'0 0.0
2018-May-16 08:58N 44°24' E 008°55'0 0.0
2018-May-16 08:25N 44°24' E 008°55'0 0.0
2018-May-16 07:55N 44°24' E 008°55'0 0.0
2018-May-16 07:19N 44°24' E 008°55'0 0.0
2018-May-16 06:55N 44°24' E 008°55'0 0.0
2018-May-16 06:25N 44°24' E 008°55'0 0.0
2018-May-16 05:58N 44°24' E 008°55'0 0.0
2018-May-16 05:25N 44°24' E 008°55'0 0.0
2018-May-16 04:58N 44°24' E 008°55'0 0.0
2018-May-16 04:25N 44°24' E 008°55'0 0.0
2018-May-16 03:58N 44°24' E 008°55'0 0.0
2018-May-16 03:28N 44°24' E 008°55'0 0.0
2018-May-16 02:55N 44°24' E 008°55'0 0.0
2018-May-16 02:28N 44°24' E 008°55'0 0.0
2018-May-16 01:58N 44°24' E 008°55'0 0.0
2018-May-16 01:28N 44°24' E 008°55'0 0.0
2018-May-16 00:58N 44°24' E 008°55'0 0.0
2018-May-16 00:28N 44°24' E 008°55'0 0.0
2018-May-15 23:58N 44°24' E 008°55'0 0.0
2018-May-15 23:25N 44°24' E 008°55'0 0.0
2018-May-15 22:58N 44°24' E 008°55'0 0.0
2018-May-15 22:28N 44°24' E 008°55'0 0.0
2018-May-15 21:58N 44°24' E 008°55'0 0.0
2018-May-15 21:28N 44°24' E 008°55'0 0.0
2018-May-15 20:49N 44°24' E 008°55'0 0.0
2018-May-15 20:28N 44°24' E 008°55'0 0.0
2018-May-15 19:58N 44°24' E 008°55'0 0.0
2018-May-15 19:25N 44°24' E 008°55'0 0.0
2018-May-15 18:55N 44°24' E 008°55'0 0.0
2018-May-15 18:19N 44°24' E 008°55'0 0.0
2018-May-15 17:55N 44°24' E 008°55'0 0.0
2018-May-15 17:28N 44°24' E 008°55'0 0.0
2018-May-15 16:58N 44°24' E 008°55'0 0.0
2018-May-15 16:28N 44°24' E 008°55'0 0.0
2018-May-15 15:58N 44°24' E 008°55'0 0.0
2018-May-15 11:49N 44°24' E 008°55'0 0.0
2018-May-15 11:31N 44°24' E 008°55'0 0.0
2018-May-15 11:01N 44°24' E 008°55'0 0.0
2018-May-15 10:28N 44°24' E 008°55'0 0.0
2018-May-15 10:01N 44°24' E 008°55'0 0.0
2018-May-15 09:31N 44°24' E 008°55'0 0.0
2018-May-15 09:01N 44°24' E 008°55'0 0.0
2018-May-15 08:31N 44°24' E 008°55'0 0.0
2018-May-15 08:01N 44°24' E 008°55'0 0.0
2018-May-15 07:31N 44°24' E 008°55'0 0.0
2018-May-15 07:01N 44°24' E 008°55'0 0.0
2018-May-15 06:31N 44°24' E 008°55'0 0.0
2018-May-15 05:58N 44°24' E 008°55'0 0.0
2018-May-15 05:25N 44°24' E 008°55'0 0.0
2018-May-15 05:01N 44°24' E 008°55'0 0.0
2018-May-15 04:25N 44°24' E 008°55'0 0.0
2018-May-15 04:01N 44°24' E 008°55'0 0.0
2018-May-15 03:31N 44°24' E 008°55'  
Track history (hours):
 
Tides and Currents Weather Stations Pressure Air Temp Water Temp Dewpoint Dewpoint Depression Visibility Wind Speed Wind Dir Waves Ship Positions

Fantastic

Last reported at 2018-May-25 03:10 UTC. Time now 2018-May-25 06:53 UTC.
Position N 41°27' E 002°54'.

Length 188 m; draft 6.6 m.

Type: Passenger vessel. MMSI: 247094000.

Date/timePositionNaut miles runAvg speedWind from/ knotsBaromVisibWave heightAir tempDewpointWater temp
2018-May-25 03:10N 41°27' E 002°54'318.9
2018-May-25 03:00N 41°24' E 002°51'1319.0
2018-May-25 02:20N 41°14' E 002°41'619.1
2018-May-25 02:00N 41°09' E 002°37'2519.5
2018-May-25 00:43N 40°47' E 002°19'519.8
2018-May-25 00:28N 40°43' E 002°15'5419.8
2018-May-24 21:45N 39°59' E 001°36'14119.6
2018-May-24 14:32N 38°02' W 000°06'219.3
2018-May-24 14:26N 38°00' W 000°07'1119.2
2018-May-24 13:52N 37°51' W 000°14'719.7
2018-May-24 13:30N 37°45' W 000°20'24919.0
2018-May-24 00:25N 36°01' W 005°03'921.2
2018-May-24 00:00N 36°00' W 005°13'1121.9
2018-May-23 23:30N 35°57' W 005°26'3 0.3
2018-May-23 13:48N 35°56' W 005°30'516.1
2018-May-23 13:31N 35°60' W 005°26'917.1
2018-May-23 13:01N 36°02' W 005°16'18117.6
2018-May-23 02:44N 36°49' W 001°38'4319.0
2018-May-23 00:27N 37°17' W 000°58'918.3
2018-May-22 23:59N 37°23' W 000°50'918.1
2018-May-22 23:31N 37°29' W 000°42'917.5
2018-May-22 23:00N 37°35' W 000°33'817.2
2018-May-22 22:31N 37°42' W 000°28'917.6
2018-May-22 22:00N 37°50' W 000°22'1018.4
2018-May-22 21:28N 37°58' W 000°15'918.3
2018-May-22 21:00N 38°05' W 000°09'1018.5
2018-May-22 20:29N 38°13' W 000°02'918.7
2018-May-22 20:00N 38°20' E 000°05'918.7
2018-May-22 19:30N 38°28' E 000°11'918.5
2018-May-22 19:00N 38°36' E 000°17'918.5
2018-May-22 18:30N 38°44' E 000°23'918.3
2018-May-22 18:00N 38°52' E 000°29'1118.4
2018-May-22 17:24N 39°02' E 000°35'818.5
2018-May-22 17:00N 39°09' E 000°39'1419.0
2018-May-22 16:16N 39°21' E 000°48'11520.1
2018-May-22 10:32N 41°02' E 001°60'120.3
2018-May-22 10:30N 41°02' E 002°00'1020.0
2018-May-22 10:00N 41°11' E 002°07'917.8
2018-May-22 09:31N 41°19' E 002°10'3 0.5
2018-May-22 04:50N 41°22' E 002°10'1 2.3
2018-May-22 04:30N 41°21' E 002°10'4 7.1
2018-May-22 04:00N 41°17' E 002°11'816.7
2018-May-22 03:30N 41°17' E 002°22'918.5
2018-May-22 03:00N 41°20' E 002°33'10917.2
2018-May-21 20:39N 42°58' E 003°38'319.4
2018-May-21 20:30N 43°01' E 003°39'1819.4
2018-May-21 19:36N 43°18' E 003°43'419.3
2018-May-21 19:25N 43°21' E 003°44'3 7.0
2018-May-21 19:00N 43°24' E 003°42'0 0.3
2018-May-21 18:28N 43°24' E 003°42'0 0.0
2018-May-21 17:52N 43°24' E 003°42'0 0.0
2018-May-21 17:25N 43°24' E 003°42'0 0.0
2018-May-21 16:58N 43°24' E 003°42'0 0.0
2018-May-21 16:19N 43°24' E 003°42'0 0.0
2018-May-21 15:58N 43°24' E 003°42'0 0.0
2018-May-21 15:28N 43°24' E 003°42'0 0.0
2018-May-21 14:58N 43°24' E 003°42'0 0.0
2018-May-21 14:22N 43°24' E 003°42'0 0.0
2018-May-21 13:58N 43°24' E 003°42'0 0.0
2018-May-21 13:28N 43°24' E 003°42'0 0.0
2018-May-21 12:58N 43°24' E 003°42'0 0.0
2018-May-21 12:22N 43°24' E 003°42'0 0.0
2018-May-21 11:58N 43°24' E 003°42'0 0.0
2018-May-21 11:28N 43°24' E 003°42'0 0.0
2018-May-21 10:49N 43°24' E 003°42'0 0.0
2018-May-21 10:28N 43°24' E 003°42'0 0.0
2018-May-21 09:58N 43°24' E 003°42'0 0.0
2018-May-21 09:28N 43°24' E 003°42'0 0.0
2018-May-21 09:00N 43°24' E 003°42'2 4.3
2018-May-21 08:30N 43°24' E 003°45'714.1
2018-May-21 08:00N 43°20' E 003°53'815.4
2018-May-21 07:30N 43°16' E 004°02'815.8
2018-May-21 07:00N 43°12' E 004°12'915.7
2018-May-21 06:26N 43°07' E 004°22'715.5
2018-May-21 06:00N 43°04' E 004°30'815.5
2018-May-21 05:30N 43°01' E 004°40'815.6
2018-May-21 05:00N 42°57' E 004°49'815.9
2018-May-21 04:30N 42°54' E 004°59'916.0
2018-May-21 03:56N 42°51' E 005°11'9714.1
2018-May-20 21:07N 43°11' E 007°20'216.2
2018-May-20 21:00N 43°12' E 007°22'1116.2
2018-May-20 20:20N 43°21' E 007°31'4916.4
2018-May-20 17:22N 43°56' E 008°17'616.4
2018-May-20 17:00N 44°00' E 008°23'816.6
2018-May-20 16:30N 44°06' E 008°32'816.5
2018-May-20 16:00N 44°11' E 008°41'816.3
2018-May-20 15:31N 44°15' E 008°51'917.2
2018-May-20 15:01N 44°22' E 008°57'2 3.9
2018-May-20 14:28N 44°24' E 008°55'0 0.0
2018-May-20 13:58N 44°24' E 008°55'0 0.0
2018-May-20 13:28N 44°24' E 008°55'0 0.0
2018-May-20 12:58N 44°24' E 008°55'0 0.0
2018-May-20 12:28N 44°24' E 008°55'0 0.0
2018-May-20 11:58N 44°24' E 008°55'0 0.0
2018-May-20 11:28N 44°24' E 008°55'0 0.0
2018-May-20 10:58N 44°24' E 008°55'0 0.0
2018-May-20 10:28N 44°24' E 008°55'0 0.0
2018-May-20 09:58N 44°24' E 008°55'0 0.0
2018-May-20 09:28N 44°24' E 008°55'0 0.0
2018-May-20 08:58N 44°24' E 008°55'0 0.0
2018-May-20 08:28N 44°24' E 008°55'0 0.0
2018-May-20 07:58N 44°24' E 008°55'0 0.0
2018-May-20 07:28N 44°24' E 008°55'0 0.0
2018-May-20 06:58N 44°24' E 008°55'0 0.0
2018-May-20 06:28N 44°24' E 008°55'0 0.0
2018-May-20 05:58N 44°24' E 008°55'0 0.0
2018-May-20 05:28N 44°24' E 008°55'0 0.0
2018-May-20 04:58N 44°24' E 008°55'0 0.0
2018-May-20 04:28N 44°24' E 008°55'0 0.0
2018-May-20 03:58N 44°24' E 008°55'0 0.0
2018-May-20 03:28N 44°24' E 008°55'0 0.0
2018-May-20 02:58N 44°24' E 008°55'0 0.0
2018-May-20 02:28N 44°24' E 008°55'0 0.0
2018-May-20 01:58N 44°24' E 008°55'0 0.0
2018-May-20 01:28N 44°24' E 008°55'0 0.0
2018-May-20 00:58N 44°24' E 008°55'0 0.0
2018-May-20 00:28N 44°24' E 008°55'0 0.0
2018-May-19 23:58N 44°24' E 008°55'0 0.0
2018-May-19 23:25N 44°24' E 008°55'0 0.0
2018-May-19 22:58N 44°24' E 008°55'0 0.0
2018-May-19 22:28N 44°24' E 008°55'0 0.0
2018-May-19 21:58N 44°24' E 008°55'0 0.0
2018-May-19 21:28N 44°24' E 008°55'0 0.0
2018-May-19 20:58N 44°24' E 008°55'0 0.0
2018-May-19 20:28N 44°24' E 008°55'0 0.0
2018-May-19 19:58N 44°24' E 008°55'0 0.0
2018-May-19 19:28N 44°24' E 008°55'0 0.0
2018-May-19 18:58N 44°24' E 008°55'0 0.0
2018-May-19 18:28N 44°24' E 008°55'0 0.0
2018-May-19 17:58N 44°24' E 008°55'0 0.0
2018-May-19 17:28N 44°24' E 008°55'0 0.0
2018-May-19 16:58N 44°24' E 008°55'0 0.0
2018-May-19 16:28N 44°24' E 008°55'0 0.0
2018-May-19 15:58N 44°24' E 008°55'0 0.0
2018-May-19 15:28N 44°24' E 008°55'0 0.0
2018-May-19 14:58N 44°24' E 008°55'0 0.0
2018-May-19 14:28N 44°24' E 008°55'0 0.0
2018-May-19 13:58N 44°24' E 008°55'0 0.0
2018-May-19 13:28N 44°24' E 008°55'0 0.0
2018-May-19 12:58N 44°24' E 008°55'0 0.0
2018-May-19 12:28N 44°24' E 008°55'0 0.0
2018-May-19 11:58N 44°24' E 008°55'0 0.0
2018-May-19 11:28N 44°24' E 008°55'0 0.0
2018-May-19 10:58N 44°24' E 008°55'0 0.0
2018-May-19 10:28N 44°24' E 008°55'0 0.0
2018-May-19 09:58N 44°24' E 008°55'0 0.0
2018-May-19 09:22N 44°24' E 008°55'0 0.0
2018-May-19 08:55N 44°24' E 008°55'0 0.0
2018-May-19 08:28N 44°24' E 008°55'0 0.0
2018-May-19 07:58N 44°24' E 008°55'0 0.0
2018-May-19 07:28N 44°24' E 008°55'0 0.0
2018-May-19 06:58N 44°24' E 008°55'0 0.0
2018-May-19 06:28N 44°24' E 008°55'0 0.0
2018-May-19 05:58N 44°24' E 008°55'0 0.0
2018-May-19 05:28N 44°24' E 008°55'0 0.0
2018-May-19 04:58N 44°24' E 008°55'0 0.0
2018-May-19 04:28N 44°24' E 008°55'0 0.0
2018-May-19 03:58N 44°24' E 008°55'0 0.0
2018-May-19 03:28N 44°24' E 008°55'0 0.0
2018-May-19 02:58N 44°24' E 008°55'0 0.0
2018-May-19 02:28N 44°24' E 008°55'0 0.0
2018-May-19 01:58N 44°24' E 008°55'0 0.0
2018-May-19 01:28N 44°24' E 008°55'0 0.0
2018-May-19 00:58N 44°24' E 008°55'0 0.0
2018-May-19 00:28N 44°24' E 008°55'0 0.0
2018-May-18 23:58N 44°24' E 008°55'0 0.0
2018-May-18 23:28N 44°24' E 008°55'0 0.0
2018-May-18 22:58N 44°24' E 008°55'0 0.0
2018-May-18 22:25N 44°24' E 008°55'0 0.0
2018-May-18 21:52N 44°24' E 008°55'0 0.0
2018-May-18 21:28N 44°24' E 008°55'0 0.0
2018-May-18 20:55N 44°24' E 008°55'0 0.0
2018-May-18 20:28N 44°24' E 008°55'0 0.0
2018-May-18 19:55N 44°24' E 008°55'0 0.0
2018-May-18 19:28N 44°24' E 008°55'0 0.0
2018-May-18 18:58N 44°24' E 008°55'0 0.0
2018-May-18 18:28N 44°24' E 008°55'0 0.0
2018-May-18 17:58N 44°24' E 008°55'0 0.0
2018-May-18 17:28N 44°24' E 008°55'0 0.0
2018-May-18 16:55N 44°24' E 008°55'0 0.0
2018-May-18 16:28N 44°24' E 008°55'0 0.0
2018-May-18 15:58N 44°24' E 008°55'0 0.0
2018-May-18 15:28N 44°24' E 008°55'0 0.0
2018-May-18 14:58N 44°24' E 008°55'0 0.0
2018-May-18 14:28N 44°24' E 008°55'0 0.0
2018-May-18 13:58N 44°24' E 008°55'0 0.0
2018-May-18 13:28N 44°24' E 008°55'0 0.0
2018-May-18 12:58N 44°24' E 008°55'0 0.0
2018-May-18 12:28N 44°24' E 008°55'0 0.2
2018-May-18 12:00N 44°24' E 008°55'3 6.2
2018-May-18 11:30N 44°22' E 008°58'5 9.4
2018-May-18 11:01N 44°17' E 008°58'4 7.2
2018-May-18 10:30N 44°13' E 008°59'611.7
2018-May-18 10:00N 44°14' E 009°07'2 4.7
2018-May-18 09:30N 44°13' E 009°10'4 8.8
2018-May-18 09:00N 44°11' E 009°05'3 5.6
2018-May-18 08:31N 44°09' E 009°02'1020.2
2018-May-18 08:01N 44°19' E 008°58'510.1
2018-May-18 07:30N 44°23' E 008°56'1 2.0
2018-May-18 07:01N 44°24' E 008°55'0 0.0
2018-May-18 06:28N 44°24' E 008°55'0 0.0
2018-May-18 05:58N 44°24' E 008°55'0 0.0
2018-May-18 05:28N 44°24' E 008°55'0 0.0
2018-May-18 04:58N 44°24' E 008°55'0 0.0
2018-May-18 04:28N 44°24' E 008°55'0 0.0
2018-May-18 03:58N 44°24' E 008°55'0 0.0
2018-May-18 03:19N 44°24' E 008°55'0 0.0
2018-May-18 02:58N 44°24' E 008°55'0 0.0
2018-May-18 02:28N 44°24' E 008°55'0 0.0
2018-May-18 01:58N 44°24' E 008°55'0 0.0
2018-May-18 01:28N 44°24' E 008°55'0 0.0
2018-May-18 00:58N 44°24' E 008°55'0 0.0
2018-May-18 00:25N 44°24' E 008°55'0 0.0
2018-May-17 23:52N 44°24' E 008°55'0 0.0
2018-May-17 23:25N 44°24' E 008°55'0 0.0
2018-May-17 22:58N 44°24' E 008°55'0 0.0
2018-May-17 22:28N 44°24' E 008°55'0 0.0
2018-May-17 21:55N 44°24' E 008°55'0 0.0
2018-May-17 21:28N 44°24' E 008°55'0 0.0
2018-May-17 20:58N 44°24' E 008°55'0 0.0
2018-May-17 20:28N 44°24' E 008°55'0 0.0
2018-May-17 19:58N 44°24' E 008°55'0 0.0
2018-May-17 19:28N 44°24' E 008°55'0 0.0
2018-May-17 18:58N 44°24' E 008°55'0 0.0
2018-May-17 18:28N 44°24' E 008°55'0 0.0
2018-May-17 17:58N 44°24' E 008°55'0 0.0
2018-May-17 17:19N 44°24' E 008°55'0 0.0
2018-May-17 16:58N 44°24' E 008°55'0 0.0
2018-May-17 16:28N 44°24' E 008°55'0 0.0
2018-May-17 15:58N 44°24' E 008°55'0 0.0
2018-May-17 15:28N 44°24' E 008°55'0 0.0
2018-May-17 14:58N 44°24' E 008°55'0 0.0
2018-May-17 14:28N 44°24' E 008°55'0 0.0
2018-May-17 13:58N 44°24' E 008°55'0 0.0
2018-May-17 13:28N 44°24' E 008°55'0 0.0
2018-May-17 12:58N 44°24' E 008°55'0 0.0
2018-May-17 12:28N 44°24' E 008°55'0 0.0
2018-May-17 11:55N 44°24' E 008°55'0 0.0
2018-May-17 11:28N 44°24' E 008°55'0 0.0
2018-May-17 10:58N 44°24' E 008°55'0 0.0
2018-May-17 10:28N 44°24' E 008°55'0 0.0
2018-May-17 09:58N 44°24' E 008°55'0 0.0
2018-May-17 09:28N 44°24' E 008°55'0 0.0
2018-May-17 08:52N 44°24' E 008°55'0 0.0
2018-May-17 08:25N 44°24' E 008°55'0 0.0
2018-May-17 07:55N 44°24' E 008°55'0 0.0
2018-May-17 07:25N 44°24' E 008°55'0 0.0
2018-May-17 06:58N 44°24' E 008°55'0 0.0
2018-May-17 06:28N 44°24' E 008°55'0 0.0
2018-May-17 05:58N 44°24' E 008°55'0 0.0
2018-May-17 05:25N 44°24' E 008°55'0 0.0
2018-May-17 04:58N 44°24' E 008°55'0 0.0
2018-May-17 04:28N 44°24' E 008°55'0 0.0
2018-May-17 03:58N 44°24' E 008°55'0 0.0
2018-May-17 03:28N 44°24' E 008°55'0 0.0
2018-May-17 02:58N 44°24' E 008°55'0 0.0
2018-May-17 02:28N 44°24' E 008°55'0 0.0
2018-May-17 01:58N 44°24' E 008°55'0 0.0
2018-May-17 01:28N 44°24' E 008°55'0 0.0
2018-May-17 00:58N 44°24' E 008°55'0 0.0
2018-May-17 00:28N 44°24' E 008°55'0 0.0
2018-May-16 23:58N 44°24' E 008°55'0 0.0
2018-May-16 23:19N 44°24' E 008°55'0 0.0
2018-May-16 22:55N 44°24' E 008°55'0 0.0
2018-May-16 22:25N 44°24' E 008°55'0 0.0
2018-May-16 21:55N 44°24' E 008°55'0 0.0
2018-May-16 21:22N 44°24' E 008°55'0 0.0
2018-May-16 20:55N 44°24' E 008°55'0 0.0
2018-May-16 20:25N 44°24' E 008°55'0 0.0
2018-May-16 19:58N 44°24' E 008°55'0 0.0
2018-May-16 19:28N 44°24' E 008°55'0 0.0
2018-May-16 18:55N 44°24' E 008°55'0 0.0
2018-May-16 18:25N 44°24' E 008°55'0 0.0
2018-May-16 17:55N 44°24' E 008°55'0 0.0
2018-May-16 17:25N 44°24' E 008°55'0 0.0
2018-May-16 16:55N 44°24' E 008°55'0 0.0
2018-May-16 16:25N 44°24' E 008°55'0 0.0
2018-May-16 15:58N 44°24' E 008°55'0 0.0
2018-May-16 15:28N 44°24' E 008°55'0 0.0
2018-May-16 14:58N 44°24' E 008°55'0 0.0
2018-May-16 14:28N 44°24' E 008°55'0 0.0
2018-May-16 13:58N 44°24' E 008°55'0 0.0
2018-May-16 13:28N 44°24' E 008°55'0 0.0
2018-May-16 12:55N 44°24' E 008°55'0 0.0
2018-May-16 12:28N 44°24' E 008°55'0 0.0
2018-May-16 11:52N 44°24' E 008°55'0 0.0
2018-May-16 11:25N 44°24' E 008°55'0 0.0
2018-May-16 10:58N 44°24' E 008°55'0 0.0
2018-May-16 10:28N 44°24' E 008°55'0 0.0
2018-May-16 09:58N 44°24' E 008°55'0 0.0
2018-May-16 09:28N 44°24' E 008°55'0 0.0
2018-May-16 08:58N 44°24' E 008°55'0 0.0
2018-May-16 08:25N 44°24' E 008°55'0 0.0
2018-May-16 07:55N 44°24' E 008°55'0 0.0
2018-May-16 07:19N 44°24' E 008°55'0 0.0
2018-May-16 06:55N 44°24' E 008°55'0 0.0
2018-May-16 06:25N 44°24' E 008°55'0 0.0
2018-May-16 05:58N 44°24' E 008°55'0 0.0
2018-May-16 05:25N 44°24' E 008°55'0 0.0
2018-May-16 04:58N 44°24' E 008°55'0 0.0
2018-May-16 04:25N 44°24' E 008°55'0 0.0
2018-May-16 03:58N 44°24' E 008°55'0 0.0
2018-May-16 03:28N 44°24' E 008°55'0 0.0
2018-May-16 02:55N 44°24' E 008°55'0 0.0
2018-May-16 02:28N 44°24' E 008°55'0 0.0
2018-May-16 01:58N 44°24' E 008°55'0 0.0
2018-May-16 01:28N 44°24' E 008°55'0 0.0
2018-May-16 00:58N 44°24' E 008°55'0 0.0
2018-May-16 00:28N 44°24' E 008°55'0 0.0
2018-May-15 23:58N 44°24' E 008°55'0 0.0
2018-May-15 23:25N 44°24' E 008°55'0 0.0
2018-May-15 22:58N 44°24' E 008°55'0 0.0
2018-May-15 22:28N 44°24' E 008°55'0 0.0
2018-May-15 21:58N 44°24' E 008°55'0 0.0
2018-May-15 21:28N 44°24' E 008°55'0 0.0
2018-May-15 20:49N 44°24' E 008°55'0 0.0
2018-May-15 20:28N 44°24' E 008°55'0 0.0
2018-May-15 19:58N 44°24' E 008°55'0 0.0
2018-May-15 19:25N 44°24' E 008°55'0 0.0
2018-May-15 18:55N 44°24' E 008°55'0 0.0
2018-May-15 18:19N 44°24' E 008°55'0 0.0
2018-May-15 17:55N 44°24' E 008°55'0 0.0
2018-May-15 17:28N 44°24' E 008°55'0 0.0
2018-May-15 16:58N 44°24' E 008°55'0 0.0
2018-May-15 16:28N 44°24' E 008°55'0 0.0
2018-May-15 15:58N 44°24' E 008°55'0 0.0
2018-May-15 11:49N 44°24' E 008°55'0 0.0
2018-May-15 11:31N 44°24' E 008°55'0 0.0
2018-May-15 11:01N 44°24' E 008°55'0 0.0
2018-May-15 10:28N 44°24' E 008°55'0 0.0
2018-May-15 10:01N 44°24' E 008°55'0 0.0
2018-May-15 09:31N 44°24' E 008°55'0 0.0
2018-May-15 09:01N 44°24' E 008°55'0 0.0
2018-May-15 08:31N 44°24' E 008°55'0 0.0
2018-May-15 08:01N 44°24' E 008°55'0 0.0
2018-May-15 07:31N 44°24' E 008°55'0 0.0
2018-May-15 07:01N 44°24' E 008°55'0 0.0
2018-May-15 06:31N 44°24' E 008°55'0 0.0
2018-May-15 05:58N 44°24' E 008°55'0 0.0
2018-May-15 05:25N 44°24' E 008°55'0 0.0
2018-May-15 05:01N 44°24' E 008°55'0 0.0
2018-May-15 04:25N 44°24' E 008°55'0 0.0
2018-May-15 04:01N 44°24' E 008°55'0 0.0
2018-May-15 03:31N 44°24' E 008°55'  

Dump ship's entire track history